Portland, Oregon
Traffic Map
Current Weather Conditions
Portland, Oregon
Few Clouds
Few Clouds
40°
Feels Like: 40°
Wind Chill: 40° Ceiling: Unl
Heat Index: 40° Visibility: 10mi
Dew Point: 30° Wind: 0mph
Humidity: 68% Direction: ° ()
Pressure: 30.41in Gusts: 0mph
Raw Report DataKPDX 131853Z 00000KT 10SM FEW250 04/M01 A3041 RMK AO2 SLP298 T00441011
Traffic Incident Summary
Active as of:
Severity:
Category:
InformationThere was an issue retrieving the traffic information for this location. Please try a different location or try again shortly.
Advertisements